Pagrindinis puslapis
METAR-TAF:

METAR-TAF

Oro uostai :

Belgaum, Indija

platuma: 15-51-33N, ilguma: 74-37-03E, Aukštis: 758 m

Dabartinis oras

Ataskaita buvo paskelbta 6 valandos ir 33 minutes, ne 14:00 UTC
Vėjas 4 kt iš Vakarų
Temperatūra 23°C
Drėgmė 89%
Slėgis 1012 hPa
Matomumas: 6000 m
Išsisklaidę debesys ne aukštis 700 ft
Išsisklaidę debesys ne aukštis 1500 ft

METAR: VOBM 171400Z 27004KT 6000 SCT007 SCT015 23/21 Q1012

Laikas: 02:03 (20:33 UTC)

Prognozė

Ataskaita buvo paskelbta 12 valandos ir 33 minutes, ne 08:00 UTC
Prognozė galioja nuo 17 metu 09 UTC su 17 metu 18 UTC
Vėjas 10 kt iš Vakarų
Matomumas: 6000 m
Išsisklaidę debesys ne aukštis 1200 ft
Išsisklaidę debesys ne aukštis 8000 ft
Laikinai
nuo 17 metu 09 UTC su 17 metu 15 UTC
Matomumas: 3000 m
Išsisklaidę debesys ne aukštis 800 ft
Išsisklaidę debesys ne aukštis 1200 ft
Su prošvaistėmis ne aukštis 8000 ft
lietus, dulksna

TAF: VOBM 170800Z 1709/1718 27010KT 6000 SCT012 SCT080 TEMPO 1709/1715 3000 RA DZ SCT008 SCT012 BKN080

Orai ataskaitas ir orų prognozės (METAR, TAF).

turimą stotys yra geltonos ir raudonos taškus žemėlapyje.

Perkelti pele per norėdami pamatyti stoties vardą.

Tada spustelėkite, norėdami matyti oro stebėjimo ir prognozės.

Norėdami pakeisti žemėlapį: spustelėkite ant žalios mygtukų su juodo kryžiaus žemyn,; žalią mygtuką su brūkšneliu, jei norite nutolinti; arba žalių rodyklių gretimoms žemėlapius.


METAR-TAF: